Time;durP1;ratioP1;P1;durP2;ratioP2;P2;SDS_P1;SDS_P2;PMS_P1;PMS_P2;Temp;Humidity;BMP_temperature;BMP_pressure;BME280_temperature;BME280_humidity;BME280_pressure;Samples;Min_cycle;Max_cycle;Signal;HPM_P1;HPM_P2
2021/07/25 00:02:36;;;;;;;74.90;41.22;;;19.10;99.90;;;;;;5131618;27;20544;-84
2021/07/25 00:05:31;;;;;;;73.03;37.97;;;19.20;99.90;;;;;;5104500;28;20054;-83
2021/07/25 00:07:59;;;;;;;76.20;41.72;;;19.20;99.90;;;;;;5111564;28;20047;-82
2021/07/25 00:10:28;;;;;;;72.18;39.65;;;19.10;99.90;;;;;;5125315;28;20044;-83
2021/07/25 00:12:59;;;;;;;;;;;19.20;99.90;;;;;;5135479;28;20057;-83
2021/07/25 00:15:38;;;;;;;66.43;37.92;;;20.80;99.90;;;;;;5095338;28;19935;-83
2021/07/25 00:18:13;;;;;;;67.13;37.63;;;19.10;99.90;;;;;;5116926;28;20054;-83
2021/07/25 00:20:46;;;;;;;75.05;41.63;;;19.10;99.90;;;;;;5097925;28;20385;-83
2021/07/25 00:23:24;;;;;;;65.32;38.53;;;19.10;99.90;;;;;;5096083;28;20058;-84
2021/07/25 00:25:56;;;;;;;69.82;40.50;;;19.20;99.90;;;;;;5093565;28;20070;-83
2021/07/25 00:28:33;;;;;;;71.75;42.17;;;19.10;99.90;;;;;;5083936;28;20044;-83
2021/07/25 00:31:04;;;;;;;64.07;40.50;;;19.20;99.90;;;;;;5096358;28;20392;-84
2021/07/25 00:33:33;;;;;;;72.20;43.60;;;19.20;99.90;;;;;;5099618;28;20043;-83
2021/07/25 00:36:09;;;;;;;72.93;41.42;;;19.20;99.90;;;;;;5102198;28;20052;-85
2021/07/25 00:38:42;;;;;;;71.25;40.00;;;19.50;99.90;;;;;;5093822;28;20063;-83
2021/07/25 00:41:27;;;;;;;69.82;40.83;;;19.10;99.90;;;;;;5095699;28;20044;-82
2021/07/25 00:43:55;;;;;;;76.85;42.03;;;19.20;99.90;;;;;;5095366;28;20044;-84
2021/07/25 00:46:25;;;;;;;73.93;39.67;;;19.20;99.90;;;;;;5102061;28;20046;-84
2021/07/25 00:49:04;;;;;;;66.65;38.38;;;19.10;99.90;;;;;;5083154;28;20063;-80
2021/07/25 00:51:37;;;;;;;75.25;36.83;;;19.10;99.90;;;;;;5096788;28;20046;-82
2021/07/25 00:54:06;;;;;;;75.70;38.28;;;19.20;99.90;;;;;;5107137;28;20062;-83
2021/07/25 00:56:35;;;;;;;72.88;43.28;;;19.10;99.90;;;;;;5097764;28;20040;-82
2021/07/25 00:59:19;;;;;;;75.60;40.08;;;19.20;99.90;;;;;;5081129;28;20057;-84
2021/07/25 01:01:52;;;;;;;67.60;41.30;;;19.10;99.90;;;;;;5094454;28;20051;-83
2021/07/25 01:05:03;;;;;;;;;;;;;;;;;;;;;
2021/07/25 01:08:04;;;;;;;73.65;39.17;;;19.10;99.90;;;;;;5105932;28;20039;-83
2021/07/25 01:10:36;;;;;;;66.15;38.08;;;19.00;99.90;;;;;;5112651;28;20048;-83
2021/07/25 01:13:17;;;;;;;64.78;39.03;;;19.00;99.90;;;;;;5093318;28;20048;-83
2021/07/25 01:16:02;;;;;;;66.63;35.60;;;18.80;99.90;;;;;;5071628;28;20063;-83
2021/07/25 01:18:58;;;;;;;64.10;35.72;;;19.00;99.90;;;;;;5099352;28;20040;-84
2021/07/25 01:21:42;;;;;;;68.60;38.75;;;18.90;99.90;;;;;;5089646;28;20058;-85
2021/07/25 01:24:20;;;;;;;70.28;38.60;;;18.90;99.90;;;;;;5105832;28;20036;-83
2021/07/25 01:26:57;;;;;;;67.60;37.53;;;19.50;99.90;;;;;;5099075;28;20044;-83
2021/07/25 01:29:42;;;;;;;69.45;37.33;;;18.90;99.90;;;;;;5086133;28;20052;-82
2021/07/25 01:32:36;;;;;;;66.38;36.45;;;18.80;99.90;;;;;;5086062;28;20056;-83
2021/07/25 01:35:09;;;;;;;63.85;35.88;;;18.80;99.90;;;;;;5097520;28;20050;-83
2021/07/25 01:37:55;;;;;;;69.22;37.20;;;18.80;99.90;;;;;;5078675;28;20062;-83
2021/07/25 01:40:26;;;;;;;69.38;37.03;;;18.70;99.90;;;;;;5071560;28;20047;-84
2021/07/25 01:43:09;;;;;;;69.22;38.00;;;18.80;99.90;;;;;;5090044;28;20047;-84
2021/07/25 01:45:45;;;;;;;70.93;38.13;;;18.80;99.90;;;;;;5106766;28;20047;-84
2021/07/25 01:48:25;;;;;;;66.50;36.72;;;18.80;99.90;;;;;;5063155;28;20441;-83
2021/07/25 01:51:00;;;;;;;63.90;37.70;;;18.80;99.90;;;;;;5109284;28;20061;-84
2021/07/25 01:53:43;;;;;;;66.93;38.38;;;18.80;99.90;;;;;;5073197;28;20052;-84
2021/07/25 01:56:24;;;;;;;68.72;37.70;;;18.80;99.90;;;;;;5074879;28;20041;-83
2021/07/25 01:59:19;;;;;;;67.90;36.95;;;18.80;99.90;;;;;;5051367;28;20071;-83
2021/07/25 02:01:57;;;;;;;67.32;39.42;;;18.80;99.90;;;;;;5082844;28;20048;-84
2021/07/25 02:04:37;;;;;;;76.05;39.47;;;18.80;99.90;;;;;;5086868;28;20053;-84
2021/07/25 02:07:16;;;;;;;68.10;39.83;;;18.80;99.90;;;;;;5105265;28;20059;-83
2021/07/25 02:09:57;;;;;;;71.70;37.33;;;18.70;99.90;;;;;;5089438;28;20047;-83
2021/07/25 02:12:42;;;;;;;75.82;44.03;;;18.80;99.90;;;;;;5090732;28;20055;-83
2021/07/25 02:15:13;;;;;;;76.25;41.88;;;18.70;99.90;;;;;;5092691;28;20067;-84
2021/07/25 02:17:47;;;;;;;72.68;41.60;;;18.70;99.90;;;;;;5092308;28;20043;-84
2021/07/25 02:20:27;;;;;;;84.03;41.75;;;18.70;99.90;;;;;;5106993;28;20291;-83
2021/07/25 02:22:56;;;;;;;80.70;40.92;;;18.70;99.90;;;;;;5091681;28;20125;-84
2021/07/25 02:25:24;;;;;;;67.45;39.75;;;18.70;99.90;;;;;;5092610;28;20041;-83
2021/07/25 02:28:08;;;;;;;74.30;39.83;;;18.80;99.90;;;;;;5072703;28;20421;-83
2021/07/25 02:30:46;;;;;;;78.13;40.45;;;18.80;99.90;;;;;;5091518;28;20040;-83
2021/07/25 02:33:18;;;;;;;69.35;38.83;;;18.80;99.90;;;;;;5075658;28;20048;-84
2021/07/25 02:35:56;;;;;;;73.15;40.40;;;18.80;99.90;;;;;;5071237;28;20045;-83
2021/07/25 02:38:25;;;;;;;67.85;38.50;;;18.70;99.90;;;;;;5094762;28;20073;-83
2021/07/25 02:41:05;;;;;;;72.45;36.70;;;18.70;99.90;;;;;;5090512;28;20059;-83
2021/07/25 02:43:41;;;;;;;71.88;38.58;;;18.80;99.90;;;;;;5097363;28;20059;-84
2021/07/25 02:46:18;;;;;;;68.18;36.85;;;18.70;99.90;;;;;;5104027;28;20042;-84
2021/07/25 02:48:47;;;;;;;69.75;40.08;;;18.70;99.90;;;;;;5107211;28;20040;-85
2021/07/25 02:51:18;;;;;;;72.55;40.22;;;18.70;99.90;;;;;;5072582;28;20063;-83
2021/07/25 02:53:49;;;;;;;71.25;38.13;;;18.80;99.90;;;;;;5075711;28;20040;-84
2021/07/25 02:56:30;;;;;;;71.75;38.92;;;18.70;99.90;;;;;;5067124;28;20441;-83
2021/07/25 02:59:02;;;;;;;72.22;37.15;;;18.70;99.90;;;;;;5085565;28;20051;-83
2021/07/25 03:01:33;;;;;;;62.08;37.22;;;18.70;99.90;;;;;;5083820;28;20052;-83
2021/07/25 03:04:09;;;;;;;68.18;38.42;;;18.70;99.90;;;;;;5090139;28;20052;-85
2021/07/25 03:06:39;;;;;;;68.82;38.15;;;18.70;99.90;;;;;;5092351;28;20131;-83
2021/07/25 03:09:10;;;;;;;67.30;39.13;;;18.70;99.90;;;;;;5081912;28;20055;-83
2021/07/25 03:11:39;;;;;;;68.88;38.40;;;20.10;99.90;;;;;;5076691;28;20059;-82
2021/07/25 03:14:13;;;;;;;69.38;35.53;;;18.60;99.90;;;;;;5097716;28;20054;-82
2021/07/25 03:16:45;;;;;;;67.18;37.10;;;18.60;99.90;;;;;;5086382;28;20059;-85
2021/07/25 03:19:19;;;;;;;64.88;38.10;;;18.60;99.90;;;;;;5072037;28;20050;-84
2021/07/25 03:22:09;;;;;;;67.40;38.13;;;18.70;99.90;;;;;;5075451;28;20047;-83
2021/07/25 03:24:42;;;;;;;73.25;37.17;;;18.00;99.90;;;;;;5074272;28;20043;-84
2021/07/25 03:27:10;;;;;;;74.50;37.88;;;18.60;99.90;;;;;;5094861;28;20059;-84
2021/07/25 03:29:46;;;;;;;69.78;37.83;;;18.60;99.90;;;;;;5072746;28;20033;-85
2021/07/25 03:32:27;;;;;;;76.20;36.40;;;18.60;99.90;;;;;;5061861;28;20041;-84
2021/07/25 03:34:56;;;;;;;70.22;36.75;;;18.60;99.90;;;;;;5084080;28;20044;-84
2021/07/25 03:37:26;;;;;;;63.10;35.97;;;18.60;99.90;;;;;;5086847;28;20059;-82
2021/07/25 03:40:01;;;;;;;80.97;39.47;;;18.60;99.90;;;;;;5076531;28;20052;-84
2021/07/25 03:42:29;;;;;;;65.15;36.13;;;18.60;99.90;;;;;;5095904;28;20037;-83
2021/07/25 03:44:59;;;;;;;73.85;36.03;;;18.60;99.90;;;;;;5084847;28;20036;-85
2021/07/25 03:47:28;;;;;;;74.38;37.90;;;18.60;99.90;;;;;;5089570;28;20048;-83
2021/07/25 03:50:01;;;;;;;64.47;33.70;;;18.60;99.90;;;;;;5056640;28;20051;-83
2021/07/25 03:52:37;;;;;;;68.05;36.95;;;18.60;99.90;;;;;;5080447;28;20059;-83
2021/07/25 03:55:10;;;;;;;67.45;35.17;;;18.60;99.90;;;;;;5095342;28;20052;-84
2021/07/25 03:57:44;;;;;;;59.00;34.28;;;18.60;99.90;;;;;;5094791;28;20063;-83
2021/07/25 04:00:16;;;;;;;60.20;33.88;;;18.60;99.90;;;;;;5100581;28;20644;-86
2021/07/25 04:02:48;;;;;;;63.03;33.80;;;18.60;99.90;;;;;;5090488;28;20044;-83
2021/07/25 04:05:22;;;;;;;64.15;36.08;;;18.60;99.90;;;;;;5088123;28;20276;-83
2021/07/25 04:07:50;;;;;;;72.15;36.05;;;18.60;99.90;;;;;;5101111;28;20052;-82
2021/07/25 04:10:21;;;;;;;61.70;35.90;;;18.60;99.90;;;;;;5090924;28;20058;-85
2021/07/25 04:12:59;;;;;;;68.32;36.30;;;18.70;99.90;;;;;;5084067;28;20054;-81
2021/07/25 04:15:28;;;;;;;79.35;37.53;;;18.60;99.90;;;;;;5089606;28;20048;-83
2021/07/25 04:17:58;;;;;;;67.47;31.90;;;18.60;99.90;;;;;;5094017;28;20036;-83
2021/07/25 04:20:32;;;;;;;67.80;33.83;;;18.60;99.90;;;;;;5084598;28;20048;-84
2021/07/25 04:23:10;;;;;;;60.35;33.92;;;18.60;99.90;;;;;;5080159;28;20056;-83
2021/07/25 04:25:42;;;;;;;72.15;38.13;;;18.60;99.90;;;;;;5074603;28;20126;-83
2021/07/25 04:28:17;;;;;;;69.60;35.50;;;18.60;99.90;;;;;;5089829;28;20052;-84
2021/07/25 04:30:46;;;;;;;64.20;34.90;;;19.20;99.90;;;;;;5097758;28;20048;-82
2021/07/25 04:33:19;;;;;;;62.58;33.72;;;18.60;99.90;;;;;;5104561;28;20044;-85
2021/07/25 04:35:57;;;;;;;66.55;36.53;;;18.60;99.90;;;;;;5087260;28;20050;-83
2021/07/25 04:38:29;;;;;;;71.13;35.78;;;18.60;99.90;;;;;;5095284;28;20052;-82
2021/07/25 04:41:02;;;;;;;72.10;37.30;;;18.80;99.90;;;;;;5095416;28;20048;-83
2021/07/25 04:43:33;;;;;;;62.38;33.45;;;18.60;99.90;;;;;;5075807;28;20382;-83
2021/07/25 04:46:13;;;;;;;69.78;34.95;;;18.60;99.90;;;;;;5089828;28;20416;-84
2021/07/25 04:49:07;;;;;;;68.40;35.10;;;18.60;99.90;;;;;;5089021;28;20062;-86
2021/07/25 04:51:43;;;;;;;65.05;34.97;;;18.60;99.90;;;;;;5108083;28;20040;-83
2021/07/25 04:54:18;;;;;;;65.50;38.40;;;18.60;99.90;;;;;;5096826;28;20040;-84
2021/07/25 04:57:00;;;;;;;67.78;36.70;;;18.60;99.90;;;;;;5093091;28;20047;-84
2021/07/25 04:59:44;;;;;;;84.90;34.57;;;18.60;99.90;;;;;;5100205;28;20058;-84
2021/07/25 05:02:23;;;;;;;72.35;34.90;;;18.60;99.90;;;;;;5098224;28;20039;-83
2021/07/25 05:04:56;;;;;;;69.18;33.05;;;18.60;99.90;;;;;;5082634;28;20056;-83
2021/07/25 05:07:41;;;;;;;68.10;34.80;;;18.70;99.90;;;;;;5098558;28;20032;-84
2021/07/25 05:10:20;;;;;;;70.28;34.33;;;17.70;99.90;;;;;;5096322;28;20517;-84
2021/07/25 05:12:55;;;;;;;72.05;34.38;;;18.70;99.90;;;;;;5085450;28;20059;-84
2021/07/25 05:15:35;;;;;;;62.70;35.38;;;18.80;99.90;;;;;;5107812;28;20040;-83
2021/07/25 05:18:07;;;;;;;65.28;33.40;;;18.70;99.90;;;;;;5082103;28;20058;-83
2021/07/25 05:21:14;;;;;;;64.30;35.40;;;18.70;99.90;;;;;;5094791;28;20049;-84
2021/07/25 05:23:51;;;;;;;66.65;33.65;;;18.70;99.90;;;;;;5094916;28;20056;-84
2021/07/25 05:26:26;;;;;;;69.45;36.53;;;18.20;99.90;;;;;;5057554;28;20052;-83
2021/07/25 05:29:05;;;;;;;65.30;34.87;;;18.20;99.90;;;;;;5102823;28;20048;-86
2021/07/25 05:31:35;;;;;;;64.35;34.25;;;18.80;99.90;;;;;;5101334;28;20303;-84
2021/07/25 05:34:12;;;;;;;70.63;36.30;;;18.80;99.90;;;;;;5071644;28;20052;-84
2021/07/25 05:36:42;;;;;;;65.70;33.13;;;18.80;99.90;;;;;;5102806;28;20433;-84
2021/07/25 05:39:12;;;;;;;68.57;36.15;;;18.60;99.90;;;;;;5101513;28;20051;-82
2021/07/25 05:41:45;;;;;;;60.65;32.80;;;18.80;99.90;;;;;;5080399;28;20043;-83
2021/07/25 05:44:22;;;;;;;68.03;36.25;;;18.80;99.90;;;;;;5068125;28;20052;-83
2021/07/25 05:46:54;;;;;;;67.10;36.40;;;18.90;99.90;;;;;;5086802;28;20064;-83
2021/07/25 05:49:26;;;;;;;67.40;34.70;;;19.00;99.90;;;;;;5072875;28;20406;-83
2021/07/25 05:51:55;;;;;;;70.28;36.45;;;19.00;99.90;;;;;;5072676;28;20063;-83
2021/07/25 05:54:31;;;;;;;69.68;35.50;;;19.00;99.90;;;;;;5091905;28;20043;-83
2021/07/25 05:57:02;;;;;;;77.15;34.40;;;19.00;99.90;;;;;;5089265;28;20049;-84
2021/07/25 05:59:41;;;;;;;71.63;35.17;;;19.00;99.90;;;;;;5090964;28;20044;-83
2021/07/25 06:02:14;;;;;;;80.18;37.60;;;18.90;99.90;;;;;;5090970;28;20036;-83
2021/07/25 06:04:46;;;;;;;60.80;32.90;;;19.00;99.90;;;;;;5089788;28;20044;-82
2021/07/25 06:07:15;;;;;;;63.13;32.05;;;19.00;99.90;;;;;;5095654;28;20060;-85
2021/07/25 06:09:46;;;;;;;80.70;36.47;;;19.00;99.90;;;;;;5097271;28;20121;-84
2021/07/25 06:12:19;;;;;;;68.35;34.97;;;19.10;99.90;;;;;;5079818;28;20045;-84
2021/07/25 06:14:58;;;;;;;70.45;33.78;;;19.10;99.90;;;;;;5104331;28;20126;-83
2021/07/25 06:17:37;;;;;;;60.42;34.50;;;19.00;99.90;;;;;;5092508;28;20051;-83
2021/07/25 06:20:17;;;;;;;64.82;33.58;;;19.00;99.90;;;;;;5103002;28;20063;-83
2021/07/25 06:22:55;;;;;;;60.85;31.38;;;19.10;99.90;;;;;;5079126;28;20036;-85
2021/07/25 06:25:29;;;;;;;63.30;33.47;;;19.50;99.90;;;;;;5108554;28;20047;-83
2021/07/25 06:28:04;;;;;;;62.33;36.22;;;19.10;99.90;;;;;;5091530;28;20047;-82
2021/07/25 06:30:37;;;;;;;72.50;31.30;;;19.10;99.90;;;;;;5106754;28;20067;-85
2021/07/25 06:33:09;;;;;;;59.53;31.77;;;19.10;99.90;;;;;;5085321;28;20049;-83
2021/07/25 06:36:04;;;;;;;62.95;31.13;;;19.10;99.90;;;;;;5071756;28;20421;-83
2021/07/25 06:38:40;;;;;;;60.08;31.25;;;19.10;99.90;;;;;;5098655;28;20062;-84
2021/07/25 06:41:19;;;;;;;58.63;30.88;;;19.20;99.90;;;;;;5082738;28;20036;-85
2021/07/25 06:43:54;;;;;;;66.97;31.92;;;19.20;99.90;;;;;;5077405;28;20048;-82
2021/07/25 06:46:28;;;;;;;58.40;30.88;;;19.30;99.90;;;;;;5070007;28;20753;-82
2021/07/25 06:48:58;;;;;;;54.30;29.08;;;19.30;99.90;;;;;;5078370;28;20041;-82
2021/07/25 06:51:29;;;;;;;55.95;29.38;;;19.30;99.90;;;;;;5097274;28;20051;-83
2021/07/25 06:53:59;;;;;;;53.13;30.15;;;19.40;99.90;;;;;;5088929;28;20036;-82
2021/07/25 06:56:30;;;;;;;60.88;31.25;;;19.40;99.90;;;;;;5084321;28;20062;-83
2021/07/25 06:59:34;;;;;;;68.55;30.23;;;19.30;99.90;;;;;;5084644;28;20048;-84
2021/07/25 07:02:04;;;;;;;64.95;30.60;;;19.30;99.90;;;;;;5079015;28;20048;-83
2021/07/25 07:04:43;;;;;;;56.90;33.65;;;19.40;99.90;;;;;;5083729;28;20051;-83
2021/07/25 07:07:12;;;;;;;61.58;29.85;;;19.40;99.90;;;;;;5084856;28;20056;-83
2021/07/25 07:09:44;;;;;;;52.95;27.85;;;19.40;99.90;;;;;;5080013;28;20053;-84
2021/07/25 07:12:19;;;;;;;52.85;29.42;;;19.40;99.90;;;;;;5080144;28;20048;-84
2021/07/25 07:14:49;;;;;;;52.70;27.38;;;19.40;99.90;;;;;;5081285;28;20063;-82
2021/07/25 07:17:23;;;;;;;68.25;28.73;;;19.50;99.90;;;;;;5082943;28;20036;-86
2021/07/25 07:19:54;;;;;;;61.67;29.60;;;19.50;99.90;;;;;;5085106;28;20044;-83
2021/07/25 07:22:30;;;;;;;60.72;28.45;;;19.50;99.90;;;;;;5078066;28;20033;-84
2021/07/25 07:24:58;;;;;;;51.13;26.85;;;19.60;99.90;;;;;;5047157;28;20056;-83
2021/07/25 07:27:27;;;;;;;57.85;29.13;;;20.20;99.90;;;;;;5080643;28;20044;-86
2021/07/25 07:30:01;;;;;;;57.30;27.25;;;19.50;99.90;;;;;;5088275;28;20053;-85
2021/07/25 07:32:32;;;;;;;53.85;29.95;;;19.50;99.90;;;;;;5087097;28;20223;-83
2021/07/25 07:35:04;;;;;;;58.88;29.67;;;19.50;99.90;;;;;;5090095;28;20040;-85
2021/07/25 07:38:01;;;;;;;51.50;28.45;;;18.20;99.90;;;;;;5074985;28;20048;-85
2021/07/25 07:40:54;;;;;;;58.80;29.70;;;19.50;99.90;;;;;;5066744;28;20056;-82
2021/07/25 07:43:23;;;;;;;53.47;28.55;;;19.50;99.90;;;;;;5090942;28;20036;-85
2021/07/25 07:45:54;;;;;;;51.17;27.48;;;19.40;99.90;;;;;;5078566;28;20040;-84
2021/07/25 07:48:26;;;;;;;48.95;26.92;;;19.50;99.90;;;;;;5085537;28;20047;-85
2021/07/25 07:50:57;;;;;;;52.33;27.50;;;19.50;99.90;;;;;;5089306;28;20051;-82
2021/07/25 07:53:40;;;;;;;49.88;27.92;;;19.50;99.90;;;;;;5082947;28;20041;-83
2021/07/25 07:56:12;;;;;;;55.53;28.73;;;19.50;99.90;;;;;;5084394;28;20055;-84
2021/07/25 07:58:41;;;;;;;55.47;28.25;;;19.60;99.90;;;;;;5073674;28;20039;-82
2021/07/25 08:01:20;;;;;;;47.88;27.65;;;19.60;99.90;;;;;;5078218;28;20061;-83
2021/07/25 08:03:49;;;;;;;57.72;27.38;;;19.70;99.90;;;;;;5082892;28;20044;-84
2021/07/25 08:06:27;;;;;;;;;;;19.70;99.90;;;;;;5085252;28;20052;-82
2021/07/25 08:09:07;;;;;;;54.15;27.38;;;19.80;99.90;;;;;;5077921;28;19928;-85
2021/07/25 08:11:46;;;;;;;51.60;26.10;;;19.80;99.90;;;;;;5060153;28;20043;-86
2021/07/25 08:14:19;;;;;;;46.70;26.08;;;19.80;99.90;;;;;;5081971;28;20041;-86
2021/07/25 08:16:52;;;;;;;51.70;29.50;;;19.90;99.90;;;;;;5082171;28;20037;-84
2021/07/25 08:19:25;;;;;;;53.25;27.70;;;19.90;99.90;;;;;;5063176;28;20045;-84
2021/07/25 08:22:02;;;;;;;52.17;27.83;;;19.40;99.90;;;;;;5067847;28;20423;-83
2021/07/25 08:24:36;;;;;;;54.97;26.58;;;20.00;99.90;;;;;;5077610;28;20052;-84
2021/07/25 08:27:11;;;;;;;50.45;26.60;;;20.10;99.90;;;;;;5098062;28;20045;-82
2021/07/25 08:29:41;;;;;;;52.83;28.10;;;20.10;99.90;;;;;;5084711;28;20055;-86
2021/07/25 08:32:13;;;;;;;56.25;28.95;;;20.10;99.90;;;;;;5102522;28;20059;-82
2021/07/25 08:34:45;;;;;;;53.30;27.38;;;20.00;99.90;;;;;;5083480;28;20283;-85
2021/07/25 08:37:19;;;;;;;48.38;27.67;;;20.00;99.90;;;;;;5086753;28;20044;-83
2021/07/25 08:39:49;;;;;;;49.83;25.75;;;20.00;99.90;;;;;;5072556;28;20045;-83
2021/07/25 08:42:31;;;;;;;50.17;27.23;;;19.90;99.90;;;;;;5081622;28;20041;-85
2021/07/25 08:45:04;;;;;;;49.17;28.17;;;19.90;99.90;;;;;;5089756;28;20036;-84
2021/07/25 08:47:39;;;;;;;55.22;29.52;;;20.00;99.90;;;;;;5064254;28;20044;-85
2021/07/25 08:50:15;;;;;;;56.10;26.95;;;20.00;99.90;;;;;;5094322;22;20704;-84
2021/07/25 08:52:45;;;;;;;54.40;27.20;;;20.00;99.90;;;;;;5071547;28;20059;-85
2021/07/25 08:55:16;;;;;;;53.03;27.38;;;20.00;99.90;;;;;;5098669;28;20063;-83
2021/07/25 08:57:54;;;;;;;50.50;26.65;;;20.00;99.90;;;;;;5057371;28;20040;-85
2021/07/25 09:00:24;;;;;;;51.13;26.60;;;20.00;99.90;;;;;;5074283;28;20245;-84
2021/07/25 09:02:53;;;;;;;50.95;26.88;;;20.10;99.90;;;;;;5072833;28;20047;-85
2021/07/25 09:05:21;;;;;;;47.42;26.02;;;20.10;99.90;;;;;;5066323;28;20056;-85
2021/07/25 09:07:57;;;;;;;51.97;26.35;;;20.20;99.90;;;;;;5066198;28;20586;-85
2021/07/25 09:10:26;;;;;;;54.80;27.48;;;20.00;99.90;;;;;;5084022;28;20040;-86
2021/07/25 09:12:55;;;;;;;53.45;28.88;;;20.30;99.90;;;;;;5082259;28;20257;-85
2021/07/25 09:15:35;;;;;;;50.83;26.13;;;20.50;99.90;;;;;;5070820;28;20612;-85
2021/07/25 09:18:05;;;;;;;55.33;25.80;;;20.40;99.90;;;;;;5073490;28;20051;-85
2021/07/25 09:20:40;;;;;;;51.78;26.42;;;20.50;99.90;;;;;;5076869;28;20289;-85
2021/07/25 09:23:15;;;;;;;42.83;25.00;;;20.50;99.90;;;;;;5080550;28;20359;-84
2021/07/25 09:25:49;;;;;;;44.63;25.08;;;21.70;99.90;;;;;;5054754;28;20287;-86
2021/07/25 09:28:24;;;;;;;50.25;24.80;;;20.60;99.90;;;;;;5075770;28;20079;-85
2021/07/25 09:31:12;;;;;;;43.83;22.85;;;20.60;99.90;;;;;;5075971;28;20048;-84
2021/07/25 09:33:45;;;;;;;44.78;23.40;;;20.50;99.90;;;;;;5080390;28;20045;-85
2021/07/25 09:36:23;;;;;;;44.00;23.63;;;20.60;99.90;;;;;;5093072;28;20360;-85
2021/07/25 09:38:57;;;;;;;42.72;22.27;;;20.70;99.90;;;;;;5062564;28;20045;-85
2021/07/25 09:41:26;;;;;;;45.72;22.83;;;20.90;99.90;;;;;;5088524;28;20040;-86
2021/07/25 09:43:59;;;;;;;38.72;22.20;;;21.00;99.90;;;;;;5090122;28;20076;-85
2021/07/25 09:46:27;;;;;;;40.58;22.60;;;21.10;99.90;;;;;;5056281;28;20048;-87
2021/07/25 09:48:59;;;;;;;38.58;21.85;;;21.30;99.90;;;;;;5074437;28;20052;-85
2021/07/25 09:51:27;;;;;;;41.38;21.23;;;21.70;99.90;;;;;;5063978;28;20057;-86
2021/07/25 09:54:00;;;;;;;38.95;19.60;;;21.50;99.90;;;;;;5085945;28;20519;-85
2021/07/25 09:56:33;;;;;;;39.83;21.48;;;21.60;99.90;;;;;;5077107;28;20045;-85
2021/07/25 09:59:01;;;;;;;;;;;21.80;99.90;;;;;;5077344;28;20048;-85
2021/07/25 10:01:42;;;;;;;32.65;18.33;;;21.90;99.90;;;;;;5071717;28;19916;-85
2021/07/25 10:04:21;;;;;;;30.83;16.70;;;22.00;99.90;;;;;;5072128;28;20492;-84
2021/07/25 10:06:51;;;;;;;33.97;17.58;;;22.10;99.90;;;;;;5070106;28;20056;-84
2021/07/25 10:09:25;;;;;;;47.70;20.13;;;22.10;99.90;;;;;;5069824;28;20040;-86
2021/07/25 10:12:04;;;;;;;34.80;17.80;;;22.20;99.90;;;;;;5080822;28;20056;-86
2021/07/25 10:14:38;;;;;;;36.78;16.95;;;22.20;99.90;;;;;;5094140;28;20036;-86
2021/07/25 10:17:10;;;;;;;31.55;17.98;;;22.30;99.90;;;;;;5076401;28;20044;-85
2021/07/25 10:19:41;;;;;;;39.78;20.40;;;22.40;99.90;;;;;;5056757;28;20072;-86
2021/07/25 10:22:11;;;;;;;34.50;19.93;;;22.40;99.90;;;;;;5069241;28;20041;-85
2021/07/25 10:24:49;;;;;;;29.88;17.00;;;22.50;99.90;;;;;;5081469;28;20041;-86
2021/07/25 10:27:19;;;;;;;34.35;18.38;;;22.60;99.90;;;;;;5079578;28;20063;-85
2021/07/25 10:29:51;;;;;;;35.58;19.05;;;22.60;99.90;;;;;;5089497;28;20063;-86
2021/07/25 10:32:20;;;;;;;36.92;19.85;;;22.70;99.90;;;;;;5067693;28;20045;-84
2021/07/25 10:34:49;;;;;;;35.13;18.77;;;22.80;99.90;;;;;;5077893;28;20052;-85
2021/07/25 10:37:18;;;;;;;35.45;17.70;;;22.90;99.90;;;;;;5062912;28;20053;-85
2021/07/25 10:39:55;;;;;;;34.45;18.17;;;23.00;99.90;;;;;;5055607;28;20048;-87
2021/07/25 10:42:29;;;;;;;31.60;16.63;;;23.10;99.90;;;;;;5072787;28;20041;-85
2021/07/25 10:45:00;;;;;;;30.33;17.08;;;23.10;99.90;;;;;;5073333;28;20059;-85
2021/07/25 10:47:32;;;;;;;32.72;16.15;;;23.10;99.90;;;;;;5079306;28;20056;-87
2021/07/25 10:50:08;;;;;;;32.22;15.38;;;23.20;99.90;;;;;;5079864;28;20045;-87
2021/07/25 10:52:55;;;;;;;25.40;14.15;;;23.30;99.90;;;;;;5085902;28;20056;-86
2021/07/25 10:55:38;;;;;;;28.00;15.05;;;23.30;99.90;;;;;;5062471;28;20047;-87
2021/07/25 10:58:22;;;;;;;27.98;15.90;;;23.40;99.90;;;;;;5093918;28;20031;-85
2021/07/25 11:01:00;;;;;;;27.00;14.60;;;23.40;99.90;;;;;;5064022;28;20044;-83
2021/07/25 11:03:39;;;;;;;25.02;15.80;;;23.30;99.90;;;;;;5072155;28;20044;-85
2021/07/25 11:06:07;;;;;;;26.92;14.25;;;23.30;99.90;;;;;;5092238;28;20052;-86
2021/07/25 11:08:43;;;;;;;26.23;13.73;;;23.20;99.90;;;;;;5097314;28;20044;-83
2021/07/25 11:11:29;;;;;;;30.38;14.98;;;23.20;99.90;;;;;;5063271;28;20047;-84
2021/07/25 11:13:57;;;;;;;34.15;17.88;;;23.20;99.90;;;;;;5095950;28;20076;-85
2021/07/25 11:16:27;;;;;;;29.73;15.82;;;23.20;99.90;;;;;;5092043;28;20044;-84
2021/07/25 11:19:00;;;;;;;29.73;17.35;;;23.10;99.90;;;;;;5074543;28;20048;-86
2021/07/25 11:21:34;;;;;;;33.47;17.35;;;23.10;99.90;;;;;;5081448;28;20040;-85
2021/07/25 11:24:18;;;;;;;32.08;18.00;;;23.00;99.90;;;;;;5095319;28;20048;-86
2021/07/25 11:26:47;;;;;;;35.05;18.58;;;23.00;99.90;;;;;;5097508;28;20063;-85
2021/07/25 11:29:24;;;;;;;35.78;19.70;;;22.90;99.90;;;;;;5082906;28;20356;-86
2021/07/25 11:31:52;;;;;;;29.33;17.92;;;22.90;99.90;;;;;;5084737;28;20542;-88
2021/07/25 11:34:27;;;;;;;30.83;17.23;;;22.80;99.90;;;;;;5065017;28;20040;-85
2021/07/25 11:36:57;;;;;;;31.05;18.45;;;22.80;99.90;;;;;;5082239;28;20047;-84
2021/07/25 11:39:25;;;;;;;44.42;21.45;;;22.90;99.90;;;;;;5078706;28;20044;-84
2021/07/25 11:41:52;;;;;;;32.45;16.88;;;22.90;99.90;;;;;;5062345;28;20044;-85
2021/07/25 11:44:32;;;;;;;36.90;18.55;;;23.00;99.90;;;;;;5081143;28;20044;-85
2021/07/25 11:47:07;;;;;;;30.17;18.10;;;23.10;99.90;;;;;;5053099;28;20056;-85
2021/07/25 11:49:40;;;;;;;36.70;19.17;;;23.20;99.90;;;;;;5075609;28;20051;-87
2021/07/25 11:52:12;;;;;;;31.73;17.88;;;23.40;99.90;;;;;;5050396;28;20063;-86
2021/07/25 11:54:43;;;;;;;30.27;18.35;;;23.50;99.90;;;;;;5069335;28;20044;-84
2021/07/25 11:57:37;;;;;;;28.10;18.20;;;23.60;99.90;;;;;;5083002;28;20057;-92
2021/07/25 12:00:07;;;;;;;37.88;19.33;;;23.70;99.90;;;;;;5076640;28;20052;-87
2021/07/25 12:02:39;;;;;;;27.85;18.17;;;23.70;99.90;;;;;;5095990;28;20036;-87
2021/07/25 12:05:12;;;;;;;31.70;18.58;;;23.80;99.90;;;;;;5051782;28;20047;-86
2021/07/25 12:07:54;;;;;;;30.25;18.20;;;23.80;99.90;;;;;;5060135;28;20053;-88
2021/07/25 12:10:34;;;;;;;29.92;16.08;;;23.80;99.90;;;;;;5072551;28;20053;-89
2021/07/25 12:13:06;;;;;;;26.88;15.20;;;23.80;99.90;;;;;;5075099;28;20410;-86
2021/07/25 12:15:38;;;;;;;25.13;13.63;;;23.80;99.90;;;;;;5078099;28;20040;-88
2021/07/25 12:18:08;;;;;;;31.05;14.88;;;23.70;99.90;;;;;;5085265;28;20040;-87
2021/07/25 12:20:36;;;;;;;30.92;14.45;;;23.70;99.90;;;;;;5076754;28;20051;-88
2021/07/25 12:23:07;;;;;;;29.27;14.77;;;23.60;99.90;;;;;;5085586;28;20487;-89
2021/07/25 12:25:37;;;;;;;27.60;14.90;;;23.60;99.90;;;;;;5096841;28;20056;-88
2021/07/25 12:28:13;;;;;;;29.45;13.95;;;23.60;99.90;;;;;;5092082;28;20063;-90
2021/07/25 12:30:56;;;;;;;26.90;16.27;;;23.60;99.90;;;;;;5044582;28;20041;-86
2021/07/25 12:33:31;;;;;;;26.92;15.52;;;23.60;99.90;;;;;;5060275;28;20052;-87
2021/07/25 12:36:13;;;;;;;27.83;15.25;;;23.60;99.90;;;;;;5077017;28;20040;-86
2021/07/25 12:38:43;;;;;;;29.42;16.40;;;23.60;99.90;;;;;;5071007;28;20526;-87
2021/07/25 12:41:11;;;;;;;29.15;15.48;;;23.60;99.90;;;;;;5087311;28;20545;-85
2021/07/25 12:43:59;;;;;;;32.13;17.55;;;23.60;99.90;;;;;;5091841;28;20050;-85
2021/07/25 12:46:30;;;;;;;29.52;16.10;;;23.70;99.90;;;;;;5072039;28;20050;-86
2021/07/25 12:49:05;;;;;;;28.35;15.95;;;23.70;99.90;;;;;;5092632;28;21509;-84
2021/07/25 12:51:44;;;;;;;32.17;17.52;;;23.80;99.90;;;;;;5065116;28;20048;-85
2021/07/25 12:54:12;;;;;;;32.33;15.98;;;23.90;99.90;;;;;;5084898;28;20013;-89
2021/07/25 12:56:41;;;;;;;27.02;16.83;;;23.20;99.90;;;;;;5073224;28;20052;-89
2021/07/25 12:59:11;;;;;;;30.90;16.98;;;24.20;99.90;;;;;;5089189;28;20086;-89
2021/07/25 13:04:15;;;;;;;30.58;18.50;;;24.40;99.90;;;;;;5093173;28;20052;-90
2021/07/25 13:06:45;;;;;;;30.85;17.58;;;24.40;99.90;;;;;;5100131;28;20028;-91
2021/07/25 13:09:18;;;;;;;32.65;17.65;;;24.40;99.90;;;;;;5081467;28;20133;-87
2021/07/25 13:11:54;;;;;;;30.60;16.08;;;24.40;99.90;;;;;;5105416;28;20045;-86